Time;durP1;ratioP1;P1;durP2;ratioP2;P2;SDS_P1;SDS_P2;PMS_P1;PMS_P2;Temp;Humidity;BMP_temperature;BMP_pressure;BME280_temperature;BME280_humidity;BME280_pressure;Samples;Min_cycle;Max_cycle;Signal;HPM_P1;HPM_P2
2023/07/02 00:01:05;;;;;;;12.82;3.13;;;;;;;14.81;100.00;99681.41;4976451;28;20102;-76
2023/07/02 00:03:31;;;;;;;10.23;3.70;;;;;;;14.81;100.00;99673.34;4967943;28;20470;-78
2023/07/02 00:05:57;;;;;;;20.60;4.77;;;;;;;14.72;100.00;99659.31;4980219;28;20030;-78
2023/07/02 00:08:22;;;;;;;11.40;3.60;;;;;;;14.76;100.00;99682.84;4978730;28;20571;-80
2023/07/02 00:10:48;;;;;;;11.15;2.78;;;;;;;14.76;100.00;99674.81;4978262;28;20053;-81
2023/07/02 00:13:14;;;;;;;14.07;3.10;;;;;;;14.81;100.00;99686.78;4964331;28;20092;-76
2023/07/02 00:15:39;;;;;;;14.05;4.38;;;;;;;14.82;100.00;99674.97;4955161;28;20306;-76
2023/07/02 00:18:05;;;;;;;15.43;4.83;;;;;;;14.72;100.00;99678.13;4958761;28;20077;-80
2023/07/02 00:20:34;;;;;;;14.30;3.83;;;;;;;14.73;100.00;99688.69;4980565;28;20050;-76
2023/07/02 00:23:00;;;;;;;13.55;3.33;;;;;;;14.77;100.00;99689.91;4976048;28;20487;-76
2023/07/02 00:25:26;;;;;;;18.92;4.25;;;;;;;14.77;100.00;99695.28;4958221;28;20022;-76
2023/07/02 00:27:51;;;;;;;10.07;3.17;;;;;;;14.71;100.00;99680.00;4957871;28;20499;-78
2023/07/02 00:30:17;;;;;;;9.27;3.60;;;;;;;14.74;100.00;99686.81;4964891;28;20029;-82
2023/07/02 00:32:43;;;;;;;8.37;3.50;;;;;;;14.67;100.00;99684.16;4957086;28;20061;-81
2023/07/02 00:35:08;;;;;;;10.93;3.07;;;;;;;14.68;100.00;99679.59;4966696;28;20396;-77
2023/07/02 00:37:34;;;;;;;11.35;3.42;;;;;;;14.62;100.00;99681.28;4960014;28;20066;-76
2023/07/02 00:39:59;;;;;;;7.77;3.43;;;;;;;14.60;100.00;99677.19;4961322;28;20220;-80
2023/07/02 00:42:29;;;;;;;7.87;3.63;;;;;;;14.55;100.00;99677.81;4974630;28;20055;-76
2023/07/02 00:44:56;;;;;;;11.85;3.95;;;;;;;14.63;100.00;99693.66;4973987;28;20137;-77
2023/07/02 00:47:23;;;;;;;8.20;3.20;;;;;;;14.52;100.00;99680.91;4957143;28;20129;-77
2023/07/02 00:49:51;;;;;;;;;;;;;;;14.63;100.00;99693.66;4954853;28;20035;-77
2023/07/02 00:52:20;;;;;;;8.02;4.93;;;;;;;14.62;100.00;99692.03;4963601;28;20215;-77
2023/07/02 00:54:45;;;;;;;10.65;3.78;;;;;;;14.53;100.00;99685.22;4982023;23;20361;-73
2023/07/02 00:57:11;;;;;;;11.27;3.38;;;;;;;14.55;100.00;99684.00;4968155;28;20038;-73
2023/07/02 00:59:37;;;;;;;14.50;4.80;;;;;;;14.58;100.00;99688.13;4967964;28;20079;-73
2023/07/02 01:02:04;;;;;;;8.13;3.00;;;;;;;14.54;100.00;99676.19;4950336;28;20436;-73
2023/07/02 01:04:31;;;;;;;11.70;3.28;;;;;;;14.54;100.00;99677.00;4966469;28;20039;-73
2023/07/02 01:06:59;;;;;;;11.77;3.53;;;;;;;14.56;100.00;99666.03;4964999;28;20033;-73
2023/07/02 01:09:28;;;;;;;17.05;3.15;;;;;;;14.57;100.00;99667.69;4958207;28;20122;-73
2023/07/02 01:11:57;;;;;;;9.38;4.25;;;;;;;14.55;100.00;99664.38;4966520;28;20030;-73
2023/07/02 01:14:22;;;;;;;16.40;3.78;;;;;;;14.60;100.00;99672.63;4964155;28;20831;-73
2023/07/02 01:16:49;;;;;;;7.27;3.53;;;;;;;14.53;100.00;99661.06;4980992;28;20026;-73
2023/07/02 01:19:51;;;;;;;13.90;4.43;;;;;;;14.56;100.00;99657.97;4964990;28;20037;-73
2023/07/02 01:22:18;;;;;;;9.38;3.60;;;;;;;14.56;100.00;99671.41;4963041;28;20086;-73
2023/07/02 01:24:47;;;;;;;10.93;3.45;;;;;;;14.60;100.00;99675.31;4982310;28;20467;-74
2023/07/02 01:27:14;;;;;;;9.70;4.40;;;;;;;14.59;100.00;99664.81;4975583;28;20038;-73
2023/07/02 01:29:40;;;;;;;16.20;3.22;;;;;;;14.60;100.00;99661.88;4966266;28;20027;-74
2023/07/02 01:32:06;;;;;;;6.63;3.85;;;;;;;14.63;100.00;99666.00;4980967;28;20527;-73
2023/07/02 01:34:31;;;;;;;11.48;4.28;;;;;;;14.56;100.00;99666.03;4947603;28;20387;-73
2023/07/02 01:36:56;;;;;;;11.17;4.07;;;;;;;14.57;100.00;99657.75;4963001;28;20047;-74
2023/07/02 01:39:22;;;;;;;9.27;4.80;;;;;;;14.61;100.00;99663.53;4963894;28;20062;-74
2023/07/02 01:41:52;;;;;;;16.63;4.53;;;;;;;14.63;100.00;99663.31;4954848;28;20046;-74
2023/07/02 01:44:18;;;;;;;14.63;4.90;;;;;;;14.70;100.00;99672.16;4965835;28;20049;-74
2023/07/02 01:46:44;;;;;;;14.77;4.25;;;;;;;14.63;100.00;99661.44;4961597;28;20030;-73
2023/07/02 01:49:11;;;;;;;12.43;4.80;;;;;;;14.62;100.00;99654.44;4965717;28;20078;-74
2023/07/02 01:51:38;;;;;;;15.30;4.57;;;;;;;14.57;100.00;99641.66;4948622;28;20031;-74
2023/07/02 01:54:03;;;;;;;11.50;4.75;;;;;;;14.60;100.00;99658.38;4965790;28;20233;-73
2023/07/02 01:56:29;;;;;;;15.30;4.83;;;;;;;14.59;100.00;99671.00;4963505;28;20117;-74
2023/07/02 01:58:54;;;;;;;31.33;7.30;;;;;;;14.60;100.00;99675.31;4963978;28;20035;-74
2023/07/02 02:01:19;;;;;;;11.43;3.93;;;;;;;14.61;100.00;99678.81;4971638;28;20023;-73
2023/07/02 02:03:45;;;;;;;12.37;4.90;;;;;;;14.58;100.00;99685.44;4964255;28;20343;-73
2023/07/02 02:06:10;;;;;;;8.80;4.03;;;;;;;14.56;100.00;99671.41;4980021;28;20081;-74
2023/07/02 02:08:36;;;;;;;13.87;5.20;;;;;;;14.51;100.00;99668.50;4963953;28;20027;-74
2023/07/02 02:11:01;;;;;;;8.67;4.90;;;;;;;14.51;100.00;99679.25;4978404;28;20361;-74
2023/07/02 02:13:26;;;;;;;10.50;4.70;;;;;;;14.47;100.00;99678.88;4962425;28;20514;-73
2023/07/02 02:15:53;;;;;;;16.50;5.10;;;;;;;14.53;100.00;99671.81;4955986;28;20038;-74
2023/07/02 02:18:18;;;;;;;14.57;5.47;;;;;;;14.50;100.00;99658.81;4964865;28;20130;-74
2023/07/02 02:20:45;;;;;;;;;;;;;;;14.44;100.00;99673.09;4956009;28;20043;-74
2023/07/02 02:23:10;;;;;;;15.80;5.22;;;;;;;14.47;100.00;99673.50;4945692;28;19914;-74
2023/07/02 02:25:36;;;;;;;9.07;5.03;;;;;;;14.49;100.00;99670.56;4961086;28;20089;-73
2023/07/02 02:28:01;;;;;;;15.77;4.77;;;;;;;14.46;100.00;99673.69;4956642;28;20086;-74
2023/07/02 02:30:27;;;;;;;8.70;5.23;;;;;;;14.52;100.00;99680.91;4956084;28;20294;-74
2023/07/02 02:32:52;;;;;;;15.47;5.57;;;;;;;14.47;100.00;99678.88;4956465;28;20080;-73
2023/07/02 02:35:18;;;;;;;12.05;5.90;;;;;;;14.47;100.00;99688.75;4946546;28;20041;-72
2023/07/02 02:37:43;;;;;;;13.95;5.95;;;;;;;14.53;100.00;99694.09;4957542;28;20035;-73
2023/07/02 02:40:10;;;;;;;10.18;4.82;;;;;;;14.57;100.00;99694.53;4954230;28;20081;-74
2023/07/02 02:42:38;;;;;;;15.60;5.93;;;;;;;14.56;100.00;99688.34;4946067;28;20856;-74
2023/07/02 02:45:04;;;;;;;11.85;5.15;;;;;;;14.48;100.00;99680.50;4945795;28;20046;-73
2023/07/02 02:47:30;;;;;;;13.98;5.32;;;;;;;14.55;100.00;99685.88;4970469;28;20039;-73
2023/07/02 02:49:55;;;;;;;18.63;6.93;;;;;;;14.53;100.00;99695.97;4946181;28;20027;-74
2023/07/02 02:52:20;;;;;;;21.13;5.63;;;;;;;14.53;100.00;99699.47;4969892;28;20531;-73
2023/07/02 02:54:46;;;;;;;16.00;5.57;;;;;;;14.52;100.00;99691.66;4962111;28;20023;-73
2023/07/02 02:57:13;;;;;;;9.95;4.80;;;;;;;14.52;100.00;99681.72;4954034;28;20042;-73
2023/07/02 02:59:38;;;;;;;11.40;4.55;;;;;;;14.59;100.00;99684.41;4930462;28;20039;-73
2023/07/02 03:02:04;;;;;;;17.10;5.78;;;;;;;14.61;100.00;99674.28;4962137;28;20034;-74
2023/07/02 03:04:29;;;;;;;15.33;5.60;;;;;;;14.56;100.00;99672.25;4946374;28;20039;-74
2023/07/02 03:06:55;;;;;;;15.10;5.13;;;;;;;14.60;100.00;99664.56;4978545;28;20108;-73
2023/07/02 03:09:24;;;;;;;8.90;4.40;;;;;;;14.59;100.00;99660.25;4961672;28;20023;-73
2023/07/02 03:11:49;;;;;;;14.73;6.03;;;;;;;14.60;100.00;99661.88;4957713;28;20026;-73
2023/07/02 03:14:14;;;;;;;14.77;5.90;;;;;;;14.53;100.00;99655.69;4952740;28;20397;-73
2023/07/02 03:16:42;;;;;;;17.17;5.25;;;;;;;14.50;100.00;99650.75;4969947;28;20027;-74
2023/07/02 03:19:07;;;;;;;13.65;5.53;;;;;;;14.53;100.00;99667.25;4952573;28;20023;-73
2023/07/02 03:21:33;;;;;;;10.30;5.32;;;;;;;14.53;100.00;99667.25;4962082;28;20049;-73
2023/07/02 03:23:58;;;;;;;18.03;5.70;;;;;;;14.57;100.00;99662.31;4953813;28;20130;-74
2023/07/02 03:26:23;;;;;;;24.77;6.07;;;;;;;14.49;100.00;99660.69;4935517;28;20030;-73
2023/07/02 03:28:49;;;;;;;13.68;4.70;;;;;;;14.52;100.00;99664.81;4962244;28;20039;-74
2023/07/02 03:31:14;;;;;;;18.40;5.30;;;;;;;14.55;100.00;99659.03;4946158;28;20031;-73
2023/07/02 03:33:40;;;;;;;20.37;6.37;;;;;;;14.53;100.00;99661.06;4950682;28;20034;-73
2023/07/02 03:36:06;;;;;;;14.60;5.60;;;;;;;14.50;100.00;99650.75;4956629;28;20088;-74
2023/07/02 03:38:32;;;;;;;12.32;4.53;;;;;;;14.54;100.00;99652.81;4965323;28;20279;-73
2023/07/02 03:40:57;;;;;;;13.93;5.23;;;;;;;14.57;100.00;99654.25;4933245;28;20045;-74
2023/07/02 03:43:24;;;;;;;15.77;5.37;;;;;;;14.53;100.00;99651.13;4964595;28;20030;-74
2023/07/02 03:45:51;;;;;;;23.30;6.53;;;;;;;14.57;100.00;99652.38;4963812;28;20047;-74
2023/07/02 03:48:16;;;;;;;13.07;4.95;;;;;;;14.52;100.00;99638.75;4945676;28;20072;-73
2023/07/02 03:50:42;;;;;;;17.13;5.20;;;;;;;14.53;100.00;99647.63;4946631;28;20078;-74
2023/07/02 03:53:07;;;;;;;14.83;5.43;;;;;;;14.52;100.00;99654.06;4967295;28;20015;-74
2023/07/02 03:55:32;;;;;;;19.23;6.37;;;;;;;14.48;100.00;99660.88;4961430;28;20236;-73
2023/07/02 03:57:58;;;;;;;14.87;5.57;;;;;;;14.42;100.00;99661.72;4951936;28;20039;-73
2023/07/02 04:00:23;;;;;;;15.70;5.30;;;;;;;14.28;100.00;99664.50;4954207;28;20046;-73
2023/07/02 04:02:49;;;;;;;;;;;;;;;14.46;100.00;99676.38;4949241;28;20435;-73
2023/07/02 04:05:15;;;;;;;15.95;5.95;;;;;;;14.49;100.00;99684.84;4942021;28;19922;-74
2023/07/02 04:07:40;;;;;;;17.73;6.47;;;;;;;14.47;100.00;99689.59;4981054;28;20028;-73
2023/07/02 04:10:06;;;;;;;20.50;6.27;;;;;;;14.51;100.00;99681.94;4949481;28;20037;-74
2023/07/02 04:12:32;;;;;;;22.00;6.05;;;;;;;14.54;100.00;99678.88;4948841;28;20354;-73
2023/07/02 04:14:57;;;;;;;18.93;6.07;;;;;;;14.40;100.00;99669.16;4964109;28;20122;-73
2023/07/02 04:17:22;;;;;;;18.90;6.10;;;;;;;14.45;100.00;99675.56;4964079;28;20498;-74
2023/07/02 04:19:48;;;;;;;16.30;6.10;;;;;;;14.47;100.00;99683.38;4956769;28;20035;-73
2023/07/02 04:22:14;;;;;;;16.65;5.75;;;;;;;14.49;100.00;99681.31;4949931;28;20479;-73
2023/07/02 04:24:39;;;;;;;16.50;5.75;;;;;;;14.47;100.00;99678.88;4958035;28;20710;-73
2023/07/02 04:27:05;;;;;;;13.53;5.10;;;;;;;14.46;100.00;99682.56;4951577;28;20037;-74
2023/07/02 04:29:31;;;;;;;14.80;6.30;;;;;;;14.53;100.00;99674.50;4957238;28;20106;-73
2023/07/02 04:31:56;;;;;;;27.30;8.32;;;;;;;14.60;100.00;99678.00;4959259;28;20492;-74
2023/07/02 04:34:21;;;;;;;19.90;6.23;;;;;;;14.72;100.00;99670.88;4953787;28;20034;-73
2023/07/02 04:36:47;;;;;;;16.53;5.97;;;;;;;14.87;100.00;99673.31;4959067;28;20448;-74
2023/07/02 04:39:12;;;;;;;20.77;6.35;;;;;;;14.93;100.00;99671.59;4967426;28;20109;-74
2023/07/02 04:41:38;;;;;;;16.27;5.97;;;;;;;14.94;100.00;99657.13;4967972;28;20475;-73
2023/07/02 04:44:03;;;;;;;21.83;4.77;;;;;;;14.90;100.00;99654.03;4963775;28;20481;-74
2023/07/02 04:46:29;;;;;;;13.80;5.15;;;;;;;14.93;100.00;99642.03;4961270;28;20038;-73
2023/07/02 04:48:54;;;;;;;21.95;6.82;;;;;;;15.09;100.00;99660.31;4957959;28;20473;-74
2023/07/02 04:51:21;;;;;;;16.50;5.33;;;;;;;15.09;100.00;99649.56;4967704;28;20046;-73
2023/07/02 04:53:47;;;;;;;14.68;5.30;;;;;;;15.24;100.00;99651.94;4965637;28;20399;-73
2023/07/02 04:56:12;;;;;;;13.50;5.97;;;;;;;15.37;100.00;99646.44;4965254;28;20023;-74
2023/07/02 04:58:37;;;;;;;12.63;4.87;;;;;;;15.27;100.00;99635.38;4959236;28;20412;-74
2023/07/02 05:01:03;;;;;;;20.73;6.50;;;;;;;15.06;100.00;99641.94;4951860;28;20039;-73
2023/07/02 05:03:28;;;;;;;20.87;7.90;;;;;;;14.89;100.00;99651.56;4962348;28;20583;-73
2023/07/02 05:05:53;;;;;;;21.97;6.73;;;;;;;15.22;100.00;99674.69;4958591;28;20035;-73
2023/07/02 05:08:19;;;;;;;19.43;5.23;;;;;;;15.20;100.00;99669.56;4967415;28;20042;-74
2023/07/02 05:10:44;;;;;;;16.63;6.50;;;;;;;15.09;100.00;99651.44;4957949;28;20039;-74
2023/07/02 05:13:09;;;;;;;13.37;6.40;;;;;;;15.34;100.00;99656.81;4959572;28;20037;-73
2023/07/02 05:15:35;;;;;;;18.93;6.63;;;;;;;15.41;100.00;99644.97;4960160;28;20041;-74
2023/07/02 05:18:00;;;;;;;16.10;6.00;;;;;;;15.59;100.00;99628.03;4963150;28;20162;-73
2023/07/02 05:20:25;;;;;;;20.23;6.80;;;;;;;15.57;100.00;99616.66;4965906;28;20495;-74
2023/07/02 05:22:51;;;;;;;18.67;7.60;;;;;;;15.36;100.00;99606.34;4968188;28;20488;-74
2023/07/02 05:25:16;;;;;;;28.40;6.50;;;;;;;15.46;100.00;99616.59;4964950;28;20645;-73
2023/07/02 05:27:42;;;;;;;17.70;6.10;;;;;;;15.38;100.00;99621.22;4966955;28;20035;-74
2023/07/02 05:30:07;;;;;;;17.57;5.93;;;;;;;15.23;100.00;99615.34;4967894;28;20333;-74
2023/07/02 05:32:34;;;;;;;20.15;7.45;;;;;;;15.26;100.00;99627.50;4963862;28;20039;-74
2023/07/02 05:34:59;;;;;;;17.35;7.72;;;;;;;15.30;100.00;99639.47;4965216;28;20031;-74
2023/07/02 05:37:24;;;;;;;23.57;7.10;;;;;;;15.33;100.00;99645.22;4966152;28;20377;-73
2023/07/02 05:39:50;;;;;;;19.10;8.07;;;;;;;15.31;100.00;99622.28;4960284;28;20039;-74
2023/07/02 05:42:15;;;;;;;21.73;7.03;;;;;;;15.25;100.00;99602.50;4964385;28;20431;-74
2023/07/02 05:44:40;;;;;;;26.07;7.27;;;;;;;15.30;100.00;99613.41;4955945;28;20039;-73
2023/07/02 05:47:06;;;;;;;24.40;7.37;;;;;;;15.20;100.00;99594.28;4959084;28;20035;-73
2023/07/02 05:49:31;;;;;;;22.07;7.07;;;;;;;15.10;100.00;99581.34;4971491;28;20379;-74
2023/07/02 05:52:00;;;;;;;23.33;6.80;;;;;;;15.00;100.00;99554.13;4967042;28;20089;-74
2023/07/02 05:54:25;;;;;;;25.60;7.97;;;;;;;15.06;100.00;99537.13;4962885;28;20061;-74
2023/07/02 05:56:50;;;;;;;24.90;6.47;;;;;;;15.13;100.00;99486.81;4961764;28;20547;-73
2023/07/02 05:59:17;;;;;;;19.83;7.63;;;;;;;15.26;100.00;99509.22;4968307;28;20054;-73
2023/07/02 06:01:43;;;;;;;18.88;6.97;;;;;;;14.88;100.00;99515.56;4955240;28;20043;-73
2023/07/02 06:04:09;;;;;;;22.02;7.85;;;;;;;14.84;100.00;99592.28;4965316;28;20027;-73
2023/07/02 06:06:34;;;;;;;20.50;9.63;;;;;;;14.59;100.00;99644.13;4960174;28;20519;-73
2023/07/02 06:08:59;;;;;;;28.53;8.53;;;;;;;14.38;100.00;99688.19;4963206;28;20081;-75
2023/07/02 06:11:25;;;;;;;27.27;8.63;;;;;;;14.12;100.00;99716.78;4964416;28;20046;-74
2023/07/02 06:13:50;;;;;;;27.13;9.63;;;;;;;13.88;100.00;99734.38;4963718;28;20019;-75
2023/07/02 06:16:15;;;;;;;35.80;8.90;;;;;;;13.95;100.00;99777.28;4949902;28;20038;-77
2023/07/02 06:18:41;;;;;;;22.03;8.03;;;;;;;13.86;100.00;99778.53;4959261;28;20387;-77
2023/07/02 06:21:06;;;;;;;30.93;8.83;;;;;;;14.12;100.00;99793.81;4965009;28;20564;-75
2023/07/02 06:23:43;;;;;;;25.97;7.97;;;;;;;14.22;100.00;99778.09;4962539;28;20458;-76
2023/07/02 06:26:08;;;;;;;32.70;9.88;;;;;;;14.37;100.00;99788.56;4965011;28;20043;-76
2023/07/02 06:28:33;;;;;;;27.20;8.83;;;;;;;14.30;100.00;99791.25;4945328;28;20030;-76
2023/07/02 06:30:59;;;;;;;24.20;8.63;;;;;;;14.31;100.00;99784.06;4946882;28;20361;-77
2023/07/02 06:33:24;;;;;;;28.67;8.67;;;;;;;14.42;100.00;99794.16;4962446;28;20165;-75
2023/07/02 06:35:50;;;;;;;18.13;8.57;;;;;;;15.06;100.00;99795.16;4961500;28;20100;-74
2023/07/02 06:38:15;;;;;;;18.40;7.47;;;;;;;16.48;100.00;99766.88;4948672;28;20193;-74
2023/07/02 06:40:40;;;;;;;20.43;7.10;;;;;;;17.20;100.00;99681.53;4981245;28;20380;-74
2023/07/02 06:43:06;;;;;;;25.03;6.47;;;;;;;16.87;100.00;99560.72;4964572;28;20034;-75
2023/07/02 06:45:31;;;;;;;22.47;7.00;;;;;;;17.95;100.00;99582.03;4959739;28;20043;-75
2023/07/02 06:47:56;;;;;;;24.03;8.70;;;;;;;18.37;100.00;99512.31;4963374;28;20840;-75
2023/07/02 06:50:22;;;;;;;31.17;8.67;;;;;;;18.29;100.00;99464.91;4964970;28;20543;-75
2023/07/02 06:52:48;;;;;;;17.83;6.35;;;;;;;18.74;100.00;99374.81;4962286;28;20031;-75
2023/07/02 06:55:13;;;;;;;22.30;7.50;;;;;;;18.65;100.00;99261.94;4964301;28;20090;-75
2023/07/02 06:57:45;;;;;;;23.33;7.53;;;;;;;18.46;100.00;99186.59;5010928;23;20058;-84
2023/07/02 07:00:12;;;;;;;27.05;8.15;;;;;;;17.46;100.00;99226.19;4992484;28;20031;-83
2023/07/02 07:02:38;;;;;;;23.27;7.53;;;;;;;18.08;100.00;99444.84;4982869;28;20035;-83
2023/07/02 07:05:04;;;;;;;16.60;7.57;;;;;;;18.35;100.00;99282.94;4956815;28;20102;-82
2023/07/02 07:07:29;;;;;;;18.83;8.00;;;;;;;18.48;100.00;99397.94;4962486;28;20276;-84
2023/07/02 07:09:55;;;;;;;25.70;8.40;;;;;;;18.86;100.00;99246.81;4989037;28;20407;-83
2023/07/02 07:12:20;;;;;;;23.75;8.20;;;;;;;19.01;100.00;99144.22;4973960;28;20023;-84
2023/07/02 07:14:46;;;;;;;33.87;9.00;;;;;;;18.16;100.00;99048.47;4988273;28;20516;-84
2023/07/02 07:17:11;;;;;;;19.23;8.00;;;;;;;17.33;100.00;99080.88;4963729;28;20029;-84
2023/07/02 07:19:36;;;;;;;27.45;8.45;;;;;;;17.22;100.00;99237.09;4993328;28;20104;-84
2023/07/02 07:22:02;;;;;;;25.53;7.57;;;;;;;16.67;100.00;99251.97;4986324;28;20038;-83
2023/07/02 07:24:27;;;;;;;20.10;8.02;;;;;;;16.70;100.00;99363.03;4975113;28;20046;-83
2023/07/02 07:26:53;;;;;;;21.40;7.57;;;;;;;16.93;100.00;99433.13;4990322;28;20034;-83
2023/07/02 07:29:18;;;;;;;17.93;6.80;;;;;;;18.02;100.00;99410.69;4992878;28;20034;-84
2023/07/02 07:31:44;;;;;;;21.00;6.57;;;;;;;18.33;100.00;99095.97;4992863;28;20064;-82
2023/07/02 07:34:09;;;;;;;29.13;9.23;;;;;;;18.89;100.00;99059.75;5010537;28;20054;-87
2023/07/02 07:36:34;;;;;;;17.60;6.83;;;;;;;18.74;100.00;98923.34;4989735;28;20030;-86
2023/07/02 07:39:00;;;;;;;21.40;7.10;;;;;;;18.47;100.00;98771.31;4987001;28;20038;-85
2023/07/02 07:41:26;;;;;;;18.27;6.50;;;;;;;18.01;100.00;98833.94;4978873;28;20041;-85
2023/07/02 07:43:51;;;;;;;23.85;7.95;;;;;;;18.44;100.00;98929.34;4990730;28;20057;-84
2023/07/02 07:46:16;;;;;;;17.77;7.57;;;;;;;17.21;100.00;98893.00;4981687;28;20224;-86
2023/07/02 07:48:42;;;;;;;18.30;6.80;;;;;;;15.89;100.00;98743.78;5012474;28;20116;-84
2023/07/02 07:51:07;;;;;;;18.27;6.40;;;;;;;15.45;100.00;98915.69;4985947;28;20030;-82
2023/07/02 07:53:32;;;;;;;15.77;5.57;;;;;;;15.46;100.00;99144.06;4977851;28;20041;-84
2023/07/02 07:55:58;;;;;;;31.23;7.03;;;;;;;15.20;100.00;99225.97;4989686;28;20030;-84
2023/07/02 07:58:24;;;;;;;22.47;6.47;;;;;;;15.45;100.00;99440.91;4997820;28;20508;-85
2023/07/02 08:00:49;;;;;;;16.67;7.22;;;;;;;15.69;100.00;99493.00;4980475;28;20472;-86
2023/07/02 08:03:15;;;;;;;18.07;6.33;;;;;;;15.92;100.00;99530.00;4987943;28;20078;-87
2023/07/02 08:05:40;;;;;;;18.83;6.43;;;;;;;16.72;100.00;99606.97;4994691;28;20037;-85
2023/07/02 08:08:05;;;;;;;15.90;6.63;;;;;;;17.50;100.00;99443.19;4994397;28;20097;-83
2023/07/02 08:10:34;;;;;;;21.63;8.30;;;;;;;16.64;100.00;99254.31;4993671;28;20046;-84
2023/07/02 08:12:59;;;;;;;20.00;6.97;;;;;;;16.60;100.00;99428.25;5013050;28;20034;-84
2023/07/02 08:15:24;;;;;;;16.30;8.07;;;;;;;16.58;100.00;99425.81;4992962;28;20105;-85
2023/07/02 08:17:54;;;;;;;24.77;6.90;;;;;;;16.47;100.00;99399.69;4992674;23;20030;-78
2023/07/02 08:20:19;;;;;;;15.05;6.72;;;;;;;16.34;100.00;99319.97;4986050;28;20065;-78
2023/07/02 08:22:44;;;;;;;15.80;6.00;;;;;;;16.95;100.00;99420.22;5010257;28;20600;-76
2023/07/02 08:25:10;;;;;;;20.67;7.77;;;;;;;16.90;100.00;99363.47;5011474;28;20038;-77
2023/07/02 08:27:38;;;;;;;17.13;6.37;;;;;;;17.88;100.00;99439.88;4999401;28;20037;-77
2023/07/02 08:30:04;;;;;;;15.60;6.47;;;;;;;18.59;100.00;99233.22;4991928;28;20041;-78
2023/07/02 08:32:32;;;;;;;16.98;6.47;;;;;;;17.91;100.00;99082.19;4993610;28;20019;-77
2023/07/02 08:34:57;;;;;;;16.95;6.63;;;;;;;16.97;100.00;99024.50;4973050;28;20053;-82
2023/07/02 08:37:23;;;;;;;25.37;7.17;;;;;;;16.81;100.00;99357.66;4995192;28;20030;-78
2023/07/02 08:39:48;;;;;;;20.10;7.13;;;;;;;16.34;100.00;99494.19;5004351;28;20026;-80
2023/07/02 08:42:14;;;;;;;23.45;7.63;;;;;;;15.60;100.00;99514.00;5009954;28;20117;-77
2023/07/02 08:44:41;;;;;;;22.58;7.40;;;;;;;15.58;100.00;99688.25;5001799;28;20066;-76
2023/07/02 08:47:06;;;;;;;19.27;7.10;;;;;;;15.07;100.00;99732.28;4985625;28;20022;-77
2023/07/02 08:49:32;;;;;;;16.90;6.07;;;;;;;14.67;100.00;99753.19;4992089;28;20343;-77
2023/07/02 08:51:58;;;;;;;14.82;5.25;;;;;;;14.54;100.00;99807.78;4990224;28;20277;-78
2023/07/02 08:54:23;;;;;;;22.40;4.63;;;;;;;14.23;100.00;99758.25;4988683;28;20035;-76
2023/07/02 08:56:48;;;;;;;21.63;6.97;;;;;;;14.06;100.00;99783.88;4995985;28;20512;-78
2023/07/02 08:59:14;;;;;;;20.10;5.40;;;;;;;14.29;100.00;99850.56;4990911;28;20574;-76
2023/07/02 09:01:46;;;;;;;18.00;4.60;;;;;;;14.58;100.00;99857.34;4982401;28;20027;-76
2023/07/02 09:04:37;;;;;;;11.48;4.43;;;;;;;14.67;100.00;99809.59;4982107;28;20046;-77
2023/07/02 09:07:10;;;;;;;12.57;4.93;;;;;;;15.14;100.00;99808.34;4968979;28;20525;-77
2023/07/02 09:09:50;;;;;;;15.07;4.10;;;;;;;16.14;100.00;99839.13;4989302;28;20483;-77
2023/07/02 09:12:34;;;;;;;14.30;4.28;;;;;;;17.32;100.00;99664.53;4987639;28;20026;-78
2023/07/02 09:15:03;;;;;;;13.48;4.75;;;;;;;18.31;100.00;99578.16;4980441;28;20070;-77
2023/07/02 09:17:31;;;;;;;11.80;3.63;;;;;;;18.65;100.00;99370.06;4986573;28;20399;-78
2023/07/02 09:19:58;;;;;;;11.57;3.63;;;;;;;18.00;100.00;99240.00;4973060;28;20031;-77
2023/07/02 09:22:23;;;;;;;17.48;6.03;;;;;;;17.69;100.00;99207.13;4990726;28;20050;-77
2023/07/02 09:24:54;;;;;;;13.63;4.10;;;;;;;16.91;100.00;99094.75;4970879;28;20495;-77
2023/07/02 09:27:19;;;;;;;15.25;4.78;;;;;;;17.12;100.00;99347.50;4987686;28;20038;-77
2023/07/02 09:29:50;;;;;;;14.95;4.43;;;;;;;16.63;100.00;99099.09;4993403;28;20084;-78
2023/07/02 09:32:24;;;;;;;17.23;4.50;;;;;;;16.41;100.00;99244.41;4984608;28;20065;-76
2023/07/02 09:34:49;;;;;;;16.63;4.60;;;;;;;16.53;100.00;99303.63;4993528;28;20118;-80
2023/07/02 09:37:15;;;;;;;14.77;3.93;;;;;;;15.96;100.00;99185.81;4991870;28;20110;-78
2023/07/02 09:39:40;;;;;;;15.13;4.97;;;;;;;15.86;100.00;99267.16;4989404;28;20074;-80
2023/07/02 09:42:10;;;;;;;11.55;3.42;;;;;;;15.93;100.00;99390.84;4976971;28;20026;-86
2023/07/02 09:44:36;;;;;;;19.35;4.70;;;;;;;16.10;100.00;99353.31;4985179;28;20034;-77
2023/07/02 09:47:04;;;;;;;15.80;4.30;;;;;;;16.82;100.00;99459.00;4988779;28;20037;-78
2023/07/02 09:49:35;;;;;;;18.27;5.00;;;;;;;18.09;100.00;99381.66;4985637;28;20423;-77
2023/07/02 09:52:02;;;;;;;10.75;4.38;;;;;;;19.27;100.00;99359.00;5000685;28;20045;-81
2023/07/02 09:54:28;;;;;;;10.35;4.20;;;;;;;19.17;100.00;98982.84;4990086;28;20030;-80
2023/07/02 09:56:54;;;;;;;15.63;4.63;;;;;;;19.90;100.00;99017.31;4991044;28;20487;-79
2023/07/02 09:59:19;;;;;;;14.43;4.43;;;;;;;18.88;100.00;98880.47;4984378;28;20458;-78
2023/07/02 10:01:44;;;;;;;14.30;4.27;;;;;;;17.71;100.00;99102.44;4998137;28;20049;-79
2023/07/02 10:04:23;;;;;;;17.50;5.53;;;;;;;17.19;100.00;99450.66;4994018;28;20030;-76
2023/07/02 10:06:57;;;;;;;16.10;4.90;;;;;;;16.66;100.00;99627.56;4980619;28;20034;-77
2023/07/02 10:09:40;;;;;;;20.00;5.28;;;;;;;17.20;100.00;99796.69;4977225;28;20038;-78
2023/07/02 10:12:18;;;;;;;24.92;5.07;;;;;;;18.09;100.00;99848.06;4985954;28;20026;-77
2023/07/02 10:14:44;;;;;;;14.75;4.43;;;;;;;17.89;100.00;99313.84;4981784;28;20073;-78
2023/07/02 10:17:10;;;;;;;13.82;4.07;;;;;;;18.42;100.00;99401.63;4966005;28;20084;-78
2023/07/02 10:19:35;;;;;;;16.33;4.85;;;;;;;19.35;100.00;99326.06;4988225;28;20042;-77
2023/07/02 10:22:03;;;;;;;13.20;3.77;;;;;;;19.56;100.00;99042.06;4985085;28;20034;-81
2023/07/02 10:24:28;;;;;;;14.38;4.60;;;;;;;20.12;100.00;99068.59;4987920;28;20037;-77
2023/07/02 10:26:58;;;;;;;15.83;4.03;;;;;;;21.09;100.00;99114.88;4987554;28;20041;-77
2023/07/02 10:29:24;;;;;;;17.83;4.20;;;;;;;20.86;100.00;98588.19;4980182;28;20042;-78
2023/07/02 10:31:54;;;;;;;;;;;;;;;19.77;100.00;98342.63;4982763;28;20022;-78
2023/07/02 10:34:32;;;;;;;13.20;4.10;;;;;;;19.42;100.00;98527.59;4994990;28;19914;-78
2023/07/02 10:37:00;;;;;;;14.82;3.78;;;;;;;18.40;100.00;98414.13;4991443;28;20132;-78
2023/07/02 10:39:26;;;;;;;18.02;3.95;;;;;;;18.19;100.00;98576.19;4982492;28;20026;-79
2023/07/02 10:41:52;;;;;;;13.85;4.45;;;;;;;17.64;100.00;98566.72;4982564;28;20035;-82
2023/07/02 10:44:17;;;;;;;14.98;3.75;;;;;;;17.70;100.00;98660.94;4984524;28;20065;-80
2023/07/02 10:46:44;;;;;;;13.50;2.67;;;;;;;17.53;100.00;98484.91;4994264;28;20050;-83
2023/07/02 10:49:11;;;;;;;9.80;2.22;;;;;;;16.42;100.00;98533.16;4993500;28;20033;-78
2023/07/02 10:51:37;;;;;;;12.25;3.42;;;;;;;15.71;100.00;98968.97;4971468;28;20513;-80
2023/07/02 10:54:04;;;;;;;11.48;2.38;;;;;;;15.33;100.00;99106.63;4991462;28;20029;-76
2023/07/02 10:56:32;;;;;;;9.82;2.50;;;;;;;15.23;100.00;99101.03;4983998;28;20046;-77
2023/07/02 10:58:57;;;;;;;11.07;2.47;;;;;;;15.72;100.00;99306.91;4985049;28;20026;-79
2023/07/02 11:01:29;;;;;;;9.07;2.22;;;;;;;15.98;100.00;99248.31;4988991;28;20526;-76
2023/07/02 11:04:04;;;;;;;16.20;3.38;;;;;;;16.17;100.00;99252.50;4989467;28;20620;-77
2023/07/02 11:06:32;;;;;;;15.07;2.65;;;;;;;16.18;100.00;99285.66;4986261;28;20049;-77
2023/07/02 11:08:58;;;;;;;13.85;3.53;;;;;;;16.34;100.00;99235.63;4984715;28;20035;-78
2023/07/02 11:11:24;;;;;;;15.00;2.88;;;;;;;17.49;100.00;99344.44;4979292;28;20038;-76
2023/07/02 11:13:50;;;;;;;13.13;3.20;;;;;;;17.58;100.00;99283.59;4979611;28;20412;-76
2023/07/02 11:16:19;;;;;;;16.92;3.33;;;;;;;17.33;100.00;99275.88;4968674;28;20118;-76